Time;durP1;ratioP1;P1;durP2;ratioP2;P2;SDS_P1;SDS_P2;PMS_P1;PMS_P2;Temp;Humidity;BMP_temperature;BMP_pressure;BME280_temperature;BME280_humidity;BME280_pressure;Samples;Min_cycle;Max_cycle;Signal;HPM_P1;HPM_P2
2023/08/03 00:01:31;;;;;;;4.75;1.45;;;16.80;99.90;;;;;;5096611;28;20040;-62
2023/08/03 00:04:03;;;;;;;4.65;1.50;;;16.80;99.90;;;;;;5081095;28;20039;-62
2023/08/03 00:06:35;;;;;;;4.75;2.05;;;16.80;99.90;;;;;;5084337;28;20040;-62
2023/08/03 00:09:02;;;;;;;5.45;2.10;;;16.70;99.90;;;;;;5105718;28;20041;-62
2023/08/03 00:11:28;;;;;;;2.80;1.30;;;16.70;99.90;;;;;;5104733;28;20452;-62
2023/08/03 00:14:00;;;;;;;5.38;1.70;;;16.70;99.90;;;;;;5103901;28;20050;-62
2023/08/03 00:16:32;;;;;;;4.85;1.50;;;16.60;99.90;;;;;;5083514;28;20062;-62
2023/08/03 00:19:04;;;;;;;4.57;1.77;;;16.70;99.90;;;;;;5094228;28;20145;-63
2023/08/03 00:21:31;;;;;;;5.82;1.65;;;16.60;99.90;;;;;;5084321;28;20048;-62
2023/08/03 00:24:03;;;;;;;6.68;2.03;;;16.60;99.90;;;;;;5077572;28;20048;-61
2023/08/03 00:26:35;;;;;;;4.75;1.45;;;16.60;99.90;;;;;;5098687;28;20043;-62
2023/08/03 00:29:02;;;;;;;5.97;2.40;;;16.60;99.90;;;;;;5065666;28;20032;-62
2023/08/03 00:31:34;;;;;;;4.25;1.42;;;16.60;99.90;;;;;;5086104;28;20044;-62
2023/08/03 00:34:06;;;;;;;4.47;3.50;;;16.60;99.90;;;;;;5084231;28;20036;-62
2023/08/03 00:36:38;;;;;;;7.05;1.70;;;16.50;99.90;;;;;;5082944;28;20044;-62
2023/08/03 00:39:10;;;;;;;3.72;1.60;;;16.50;99.90;;;;;;5083653;28;20047;-62
2023/08/03 00:41:42;;;;;;;3.75;1.83;;;16.40;99.90;;;;;;5065212;28;20515;-62
2023/08/03 00:44:15;;;;;;;3.15;1.58;;;16.50;99.90;;;;;;5082163;28;20397;-62
2023/08/03 00:46:47;;;;;;;5.28;1.85;;;16.50;99.90;;;;;;5086461;28;20056;-62
2023/08/03 00:49:19;;;;;;;4.72;1.55;;;16.60;99.90;;;;;;5087122;28;20112;-62
2023/08/03 00:51:51;;;;;;;6.23;3.03;;;16.60;99.90;;;;;;5081856;28;20036;-62
2023/08/03 00:54:23;;;;;;;5.43;2.40;;;16.60;99.90;;;;;;5085061;28;20050;-62
2023/08/03 00:56:55;;;;;;;5.25;2.00;;;16.60;99.90;;;;;;5086077;28;20051;-62
2023/08/03 00:59:28;;;;;;;5.15;1.70;;;16.50;99.90;;;;;;5083158;28;20139;-62
2023/08/03 01:02:00;;;;;;;4.70;1.60;;;16.40;99.90;;;;;;5066946;28;20071;-62
2023/08/03 01:04:28;;;;;;;5.15;1.70;;;16.40;99.90;;;;;;5061947;28;20544;-62
2023/08/03 01:07:00;;;;;;;4.18;1.40;;;16.30;99.90;;;;;;5105504;28;20705;-62
2023/08/03 01:09:32;;;;;;;4.70;1.60;;;16.30;99.90;;;;;;5053878;28;20409;-62
2023/08/03 01:12:05;;;;;;;7.05;2.22;;;16.20;99.90;;;;;;5080906;28;20032;-62
2023/08/03 01:14:37;;;;;;;9.43;2.13;;;16.20;99.90;;;;;;5082137;28;20869;-62
2023/08/03 01:17:09;;;;;;;5.95;1.63;;;16.10;99.90;;;;;;5085084;28;20415;-62
2023/08/03 01:19:41;;;;;;;7.95;2.08;;;16.00;99.90;;;;;;5083981;28;20044;-62
2023/08/03 01:22:13;;;;;;;6.53;1.80;;;16.00;99.90;;;;;;5084159;28;20048;-62
2023/08/03 01:24:45;;;;;;;7.45;2.00;;;16.00;99.90;;;;;;5078590;28;20082;-62
2023/08/03 01:27:18;;;;;;;6.05;1.77;;;16.00;99.90;;;;;;5066927;28;20036;-62
2023/08/03 01:29:49;;;;;;;4.78;1.92;;;16.00;99.90;;;;;;5083992;28;20036;-61
2023/08/03 01:32:21;;;;;;;5.68;1.80;;;16.00;99.90;;;;;;5108853;28;20526;-61
2023/08/03 01:34:48;;;;;;;6.38;1.85;;;16.10;99.90;;;;;;5101449;28;20031;-62
2023/08/03 01:37:20;;;;;;;7.88;1.92;;;16.10;99.90;;;;;;5105922;28;20036;-62
2023/08/03 01:39:53;;;;;;;12.88;1.85;;;16.10;99.90;;;;;;5073659;28;20511;-62
2023/08/03 01:42:25;;;;;;;9.82;2.20;;;16.10;99.90;;;;;;5058809;28;20661;-64
2023/08/03 01:44:58;;;;;;;6.80;1.90;;;16.10;99.90;;;;;;5100443;28;20403;-64
2023/08/03 01:47:30;;;;;;;5.70;2.00;;;16.10;99.90;;;;;;5081644;28;20089;-64
2023/08/03 01:50:02;;;;;;;9.45;2.50;;;16.00;99.90;;;;;;5096421;28;20043;-64
2023/08/03 01:52:34;;;;;;;6.25;1.80;;;16.00;99.90;;;;;;5077596;28;20062;-64
2023/08/03 01:55:01;;;;;;;6.75;2.20;;;16.00;99.90;;;;;;5089060;28;20150;-63
2023/08/03 01:57:33;;;;;;;5.22;1.88;;;15.90;99.90;;;;;;5080483;28;20074;-64
2023/08/03 02:00:05;;;;;;;7.53;2.20;;;15.90;99.90;;;;;;5087756;28;20056;-64
2023/08/03 02:02:40;;;;;;;11.57;2.53;;;15.80;99.90;;;;;;5104371;28;20050;-64
2023/08/03 02:05:14;;;;;;;10.05;1.83;;;15.80;99.90;;;;;;5081917;28;20105;-64
2023/08/03 02:07:57;;;;;;;6.88;2.13;;;15.80;99.90;;;;;;5081853;28;20035;-64
2023/08/03 02:10:29;;;;;;;7.20;2.33;;;15.70;99.90;;;;;;5076049;28;20064;-64
2023/08/03 02:13:01;;;;;;;5.82;2.45;;;15.70;99.90;;;;;;5079844;28;20040;-64
2023/08/03 02:15:33;;;;;;;8.27;2.67;;;15.60;99.90;;;;;;5076717;28;20047;-64
2023/08/03 02:18:06;;;;;;;9.45;2.55;;;15.60;99.90;;;;;;5071275;28;20134;-64
2023/08/03 02:20:32;;;;;;;9.85;2.60;;;15.50;99.90;;;;;;5090730;28;20393;-64
2023/08/03 02:23:05;;;;;;;7.22;2.10;;;15.40;99.90;;;;;;5101866;28;20038;-64
2023/08/03 02:25:36;;;;;;;6.10;1.98;;;15.40;99.90;;;;;;5086778;28;20039;-64
2023/08/03 02:28:03;;;;;;;5.20;2.03;;;15.30;99.90;;;;;;5087992;28;20144;-64
2023/08/03 02:30:31;;;;;;;4.47;1.77;;;15.30;99.90;;;;;;5086264;28;20385;-64
2023/08/03 02:32:57;;;;;;;8.98;2.38;;;15.30;99.90;;;;;;5070816;28;20031;-64
2023/08/03 02:35:29;;;;;;;5.43;1.67;;;15.30;99.90;;;;;;5087868;28;20120;-64
2023/08/03 02:37:59;;;;;;;6.63;1.80;;;15.30;99.90;;;;;;5078330;28;20036;-64
2023/08/03 02:40:26;;;;;;;7.00;2.00;;;15.30;99.90;;;;;;5082726;28;20059;-64
2023/08/03 02:42:58;;;;;;;11.88;2.20;;;15.30;99.90;;;;;;5085456;28;20051;-64
2023/08/03 02:45:33;;;;;;;7.47;2.10;;;15.30;99.90;;;;;;5071549;28;20101;-64
2023/08/03 02:48:06;;;;;;;6.53;2.10;;;15.30;99.90;;;;;;5057630;28;20037;-64
2023/08/03 02:50:38;;;;;;;9.38;1.95;;;15.30;99.90;;;;;;5086430;28;20499;-64
2023/08/03 02:53:12;;;;;;;5.93;2.50;;;15.30;99.90;;;;;;5079525;28;20032;-64
2023/08/03 02:55:46;;;;;;;8.52;3.38;;;15.30;99.90;;;;;;5097630;28;20074;-64
2023/08/03 02:58:19;;;;;;;4.43;1.87;;;15.30;99.90;;;;;;5077600;28;20526;-64
2023/08/03 03:00:51;;;;;;;7.75;2.05;;;15.30;99.90;;;;;;5073931;28;20800;-64
2023/08/03 03:03:22;;;;;;;7.90;2.63;;;15.30;99.90;;;;;;5062897;28;20125;-64
2023/08/03 03:05:54;;;;;;;9.18;2.20;;;15.20;99.90;;;;;;5099818;28;20126;-64
2023/08/03 03:08:31;;;;;;;9.45;2.90;;;15.30;99.90;;;;;;5071752;28;20503;-64
2023/08/03 03:11:04;;;;;;;6.13;2.00;;;15.30;99.90;;;;;;5085060;28;20039;-64
2023/08/03 03:13:36;;;;;;;10.88;3.00;;;15.20;99.90;;;;;;5084269;28;20131;-64
2023/08/03 03:16:08;;;;;;;6.93;1.67;;;15.20;99.90;;;;;;5090080;28;20028;-64
2023/08/03 03:18:35;;;;;;;10.82;2.60;;;15.20;99.90;;;;;;5105213;28;20043;-62
2023/08/03 03:21:07;;;;;;;9.40;2.58;;;15.20;99.90;;;;;;5081534;28;20503;-62
2023/08/03 03:23:39;;;;;;;6.32;2.03;;;15.20;99.90;;;;;;5084428;28;20534;-62
2023/08/03 03:26:11;;;;;;;8.88;2.35;;;15.10;99.90;;;;;;5068833;28;20040;-62
2023/08/03 03:28:42;;;;;;;9.50;1.90;;;15.10;99.90;;;;;;5083495;28;20040;-61
2023/08/03 03:31:20;;;;;;;10.13;2.80;;;15.00;99.90;;;;;;5084985;28;20040;-62
2023/08/03 03:33:53;;;;;;;7.28;1.98;;;14.90;99.90;;;;;;5070413;28;20127;-62
2023/08/03 03:36:24;;;;;;;5.35;1.88;;;15.00;99.90;;;;;;5063250;28;20067;-62
2023/08/03 03:38:51;;;;;;;8.90;1.83;;;14.90;99.90;;;;;;5086095;28;20043;-62
2023/08/03 03:41:23;;;;;;;7.72;2.05;;;14.90;99.90;;;;;;5087683;28;20607;-62
2023/08/03 03:43:55;;;;;;;7.95;2.25;;;14.90;99.90;;;;;;5076945;28;20106;-62
2023/08/03 03:46:27;;;;;;;9.10;2.22;;;14.90;99.90;;;;;;5074326;28;20078;-62
2023/08/03 03:48:59;;;;;;;9.90;2.65;;;14.80;99.90;;;;;;5064043;28;20040;-64
2023/08/03 03:51:32;;;;;;;5.72;2.00;;;14.90;99.90;;;;;;5066607;28;20503;-62
2023/08/03 03:54:05;;;;;;;7.07;2.10;;;14.80;99.90;;;;;;5071350;28;20036;-62
2023/08/03 03:56:36;;;;;;;7.60;1.65;;;14.80;99.90;;;;;;5085196;28;20308;-62
2023/08/03 03:59:04;;;;;;;8.73;1.65;;;14.80;99.90;;;;;;5083127;28;20032;-62
2023/08/03 04:01:37;;;;;;;5.88;2.05;;;14.80;99.90;;;;;;5069865;28;20527;-62
2023/08/03 04:04:09;;;;;;;8.73;1.88;;;14.80;99.90;;;;;;5073884;28;20094;-62
2023/08/03 04:06:43;;;;;;;8.27;1.83;;;14.70;99.90;;;;;;5080182;28;20409;-62
2023/08/03 04:09:15;;;;;;;9.18;2.10;;;14.70;99.90;;;;;;5081607;28;20036;-62
2023/08/03 04:11:47;;;;;;;8.98;2.08;;;14.70;99.90;;;;;;5063799;28;20043;-62
2023/08/03 04:14:18;;;;;;;8.60;1.73;;;14.70;99.90;;;;;;5085539;28;20032;-62
2023/08/03 04:16:50;;;;;;;7.05;1.92;;;14.60;99.90;;;;;;5066544;28;20036;-62
2023/08/03 04:19:23;;;;;;;9.25;2.00;;;14.60;99.90;;;;;;5096563;22;20039;-65
2023/08/03 04:21:55;;;;;;;4.43;1.88;;;14.60;99.90;;;;;;5078749;28;20130;-65
2023/08/03 04:24:30;;;;;;;4.18;1.73;;;14.60;99.90;;;;;;5081116;28;20120;-65
2023/08/03 04:26:57;;;;;;;6.05;1.85;;;14.60;99.90;;;;;;5102489;28;20461;-65
2023/08/03 04:29:29;;;;;;;5.72;2.03;;;14.60;99.90;;;;;;5078911;28;20040;-65
2023/08/03 04:31:56;;;;;;;8.27;2.08;;;14.60;99.90;;;;;;5087902;28;20047;-65
2023/08/03 04:34:30;;;;;;;7.55;1.90;;;14.70;99.90;;;;;;5082156;28;20032;-65
2023/08/03 04:37:06;;;;;;;4.10;1.65;;;14.70;99.90;;;;;;5085140;28;20044;-65
2023/08/03 04:39:38;;;;;;;12.20;2.00;;;14.70;99.90;;;;;;5082303;28;20047;-65
2023/08/03 04:42:12;;;;;;;14.27;2.33;;;14.80;99.90;;;;;;5071324;28;20032;-65
2023/08/03 04:44:44;;;;;;;6.07;2.00;;;14.80;99.90;;;;;;5082093;28;20070;-65
2023/08/03 04:47:18;;;;;;;6.60;1.77;;;14.80;99.90;;;;;;5078373;28;20127;-65
2023/08/03 04:49:51;;;;;;;7.63;1.75;;;14.80;99.90;;;;;;5069329;28;20044;-65
2023/08/03 04:52:18;;;;;;;9.45;2.08;;;14.90;99.90;;;;;;5096968;28;20048;-65
2023/08/03 04:54:50;;;;;;;6.70;1.52;;;14.90;99.90;;;;;;5082315;28;20471;-65
2023/08/03 04:57:22;;;;;;;6.13;2.05;;;14.90;99.90;;;;;;5083514;28;20035;-65
2023/08/03 04:59:56;;;;;;;6.25;1.95;;;15.00;99.90;;;;;;5100107;28;20132;-64
2023/08/03 05:02:28;;;;;;;6.35;1.65;;;15.10;99.90;;;;;;5063695;28;20037;-65
2023/08/03 05:05:00;;;;;;;6.35;1.85;;;15.10;99.90;;;;;;5084955;28;20058;-65
2023/08/03 05:07:32;;;;;;;5.38;1.80;;;15.10;99.90;;;;;;5074778;28;20072;-65
2023/08/03 05:10:04;;;;;;;6.13;1.50;;;15.30;99.90;;;;;;5082036;28;21147;-65
2023/08/03 05:12:30;;;;;;;5.10;1.23;;;15.40;99.90;;;;;;5079040;28;20032;-65
2023/08/03 05:15:02;;;;;;;13.13;1.80;;;15.40;99.90;;;;;;5074552;28;20043;-65
2023/08/03 05:17:35;;;;;;;8.65;2.00;;;15.50;99.90;;;;;;5083145;28;20063;-66
2023/08/03 05:20:07;;;;;;;7.13;1.65;;;15.50;99.90;;;;;;5068452;28;20519;-66
2023/08/03 05:22:39;;;;;;;6.38;1.67;;;15.60;99.90;;;;;;5061077;28;20044;-66
2023/08/03 05:25:07;;;;;;;4.68;1.55;;;15.70;99.90;;;;;;5099172;28;20483;-66
2023/08/03 05:27:38;;;;;;;7.97;1.48;;;15.70;99.90;;;;;;5096070;28;20492;-66
2023/08/03 05:30:10;;;;;;;4.18;1.30;;;15.70;99.90;;;;;;5069665;28;20051;-65
2023/08/03 05:32:42;;;;;;;7.32;1.70;;;15.80;99.90;;;;;;5102064;28;20044;-66
2023/08/03 05:35:16;;;;;;;4.97;2.13;;;15.90;99.90;;;;;;5096594;28;20051;-66
2023/08/03 05:37:51;;;;;;;;;;;15.90;99.90;;;;;;5090464;28;20134;-66
2023/08/03 05:40:23;;;;;;;4.57;1.27;;;16.00;99.90;;;;;;5077224;28;19926;-64
2023/08/03 05:42:55;;;;;;;6.88;1.25;;;16.00;99.90;;;;;;5098687;28;20134;-64
2023/08/03 05:45:45;;;;;;;8.13;1.63;;;16.10;99.90;;;;;;5076928;28;20054;-65
2023/08/03 05:48:14;;;;;;;6.38;1.80;;;16.10;99.90;;;;;;5096528;28;20040;-65
2023/08/03 05:50:51;;;;;;;8.35;1.70;;;16.20;99.90;;;;;;5089303;28;20087;-64
2023/08/03 05:53:23;;;;;;;4.10;1.30;;;16.20;99.90;;;;;;5064207;28;20044;-64
2023/08/03 05:55:55;;;;;;;4.75;1.17;;;16.20;99.90;;;;;;5096132;28;20408;-64
2023/08/03 05:58:27;;;;;;;5.65;2.15;;;16.30;99.90;;;;;;5085512;28;20036;-64
2023/08/03 06:00:59;;;;;;;5.93;1.00;;;16.30;99.90;;;;;;5078434;28;20047;-64
2023/08/03 06:03:34;;;;;;;6.53;1.52;;;16.40;99.90;;;;;;5076708;28;20659;-65
2023/08/03 06:06:09;;;;;;;2.60;0.98;;;16.40;99.90;;;;;;5092587;28;20036;-65
2023/08/03 06:08:48;;;;;;;4.75;1.13;;;16.50;99.90;;;;;;5072720;28;20044;-65
2023/08/03 06:11:20;;;;;;;5.05;1.42;;;16.50;99.90;;;;;;5097523;28;20035;-64
2023/08/03 06:13:52;;;;;;;3.45;1.08;;;16.60;99.90;;;;;;5081028;28;20059;-65
2023/08/03 06:16:22;;;;;;;4.47;1.10;;;16.60;99.90;;;;;;5079063;28;20653;-65
2023/08/03 06:18:54;;;;;;;4.88;0.93;;;16.70;99.90;;;;;;5075504;28;20781;-64
2023/08/03 06:21:27;;;;;;;6.57;1.33;;;16.80;99.90;;;;;;5071994;28;20040;-64
2023/08/03 06:23:59;;;;;;;8.07;1.45;;;16.80;99.90;;;;;;5074573;28;20054;-64
2023/08/03 06:26:36;;;;;;;7.78;1.08;;;16.80;99.90;;;;;;5092358;28;20040;-65
2023/08/03 06:29:12;;;;;;;2.95;1.05;;;16.90;99.90;;;;;;5074680;28;20039;-64
2023/08/03 06:31:44;;;;;;;2.75;1.20;;;16.90;99.90;;;;;;5090604;28;20119;-64
2023/08/03 06:34:16;;;;;;;4.05;1.65;;;17.00;99.90;;;;;;5075301;28;20039;-64
2023/08/03 06:36:48;;;;;;;4.13;1.50;;;17.00;99.90;;;;;;5076744;28;20529;-65
2023/08/03 06:39:15;;;;;;;4.13;1.33;;;17.10;99.90;;;;;;5093412;28;20150;-64
2023/08/03 06:41:42;;;;;;;6.28;1.13;;;17.10;99.90;;;;;;5096933;28;20064;-65
2023/08/03 06:44:16;;;;;;;;;;;17.10;99.90;;;;;;5072390;28;20126;-64
2023/08/03 06:46:48;;;;;;;4.88;1.42;;;17.20;99.90;;;;;;5093666;28;19924;-64
2023/08/03 06:49:20;;;;;;;6.53;1.65;;;17.30;99.90;;;;;;5099414;28;20148;-64
2023/08/03 06:51:52;;;;;;;4.20;1.02;;;17.30;99.90;;;;;;5101592;28;20036;-64
2023/08/03 06:54:24;;;;;;;6.00;2.10;;;17.40;99.90;;;;;;5096647;28;20031;-64
2023/08/03 06:56:57;;;;;;;5.03;1.33;;;17.40;99.90;;;;;;5083122;28;20043;-64
2023/08/03 06:59:29;;;;;;;5.32;0.98;;;17.40;99.90;;;;;;5083594;28;20050;-65
2023/08/03 07:02:01;;;;;;;5.97;1.35;;;17.50;99.90;;;;;;5063015;28;20427;-64
2023/08/03 07:04:33;;;;;;;5.88;1.92;;;17.60;99.90;;;;;;5091271;28;20525;-64
2023/08/03 07:07:05;;;;;;;3.63;0.90;;;17.60;99.90;;;;;;5093192;28;20119;-65
2023/08/03 07:09:37;;;;;;;2.60;1.20;;;17.70;99.90;;;;;;5097031;28;20042;-64
2023/08/03 07:12:09;;;;;;;2.83;0.80;;;17.70;99.90;;;;;;5094427;28;20043;-64
2023/08/03 07:14:41;;;;;;;5.97;1.20;;;17.80;99.90;;;;;;5096288;28;20044;-65
2023/08/03 07:17:13;;;;;;;4.18;1.45;;;17.90;99.90;;;;;;5078699;28;20032;-65
2023/08/03 07:19:51;;;;;;;4.68;1.33;;;17.90;99.90;;;;;;5094725;28;20063;-64
2023/08/03 07:22:24;;;;;;;3.70;1.45;;;18.00;99.90;;;;;;5092558;28;20048;-64
2023/08/03 07:24:56;;;;;;;3.92;1.20;;;18.00;99.90;;;;;;5073717;28;20032;-64
2023/08/03 07:27:28;;;;;;;5.90;1.25;;;18.10;99.90;;;;;;5073645;28;20055;-64
2023/08/03 07:29:59;;;;;;;1.52;0.90;;;18.20;99.90;;;;;;5095744;28;20043;-64
2023/08/03 07:32:32;;;;;;;2.55;0.70;;;18.30;99.90;;;;;;5071806;28;20036;-64
2023/08/03 07:35:05;;;;;;;3.42;0.90;;;18.30;99.90;;;;;;5075566;28;20048;-64
2023/08/03 07:37:36;;;;;;;3.47;0.90;;;18.30;99.90;;;;;;5088080;28;20058;-64
2023/08/03 07:40:09;;;;;;;3.67;0.85;;;18.40;99.90;;;;;;5077551;28;20048;-64
2023/08/03 07:42:40;;;;;;;4.25;1.50;;;18.50;99.90;;;;;;5094002;28;20040;-65
2023/08/03 07:45:08;;;;;;;3.70;0.90;;;18.60;99.90;;;;;;5096005;28;20093;-65
2023/08/03 07:47:39;;;;;;;4.22;1.67;;;18.80;99.90;;;;;;5091362;28;20765;-65
2023/08/03 07:50:11;;;;;;;3.92;0.70;;;18.90;99.90;;;;;;5072714;28;20040;-65
2023/08/03 07:52:43;;;;;;;2.50;0.68;;;18.90;99.90;;;;;;5088048;28;20040;-65
2023/08/03 07:55:15;;;;;;;6.20;1.00;;;19.00;99.90;;;;;;5074064;28;20067;-64
2023/08/03 07:57:47;;;;;;;2.50;1.27;;;19.10;99.90;;;;;;5078634;28;20032;-65
2023/08/03 08:00:14;;;;;;;2.35;0.60;;;19.20;99.90;;;;;;5093808;28;20035;-65
2023/08/03 08:02:46;;;;;;;3.15;0.90;;;19.10;99.90;;;;;;5078971;28;20047;-65
2023/08/03 08:05:17;;;;;;;2.58;0.95;;;19.10;99.90;;;;;;5100662;28;20051;-65
2023/08/03 08:07:49;;;;;;;3.20;0.73;;;19.10;99.90;;;;;;5081028;28;20120;-65
2023/08/03 08:10:21;;;;;;;2.45;0.80;;;19.20;99.90;;;;;;5075832;28;20059;-65
2023/08/03 08:12:53;;;;;;;2.72;0.63;;;19.20;99.90;;;;;;5090707;28;20496;-65
2023/08/03 08:15:25;;;;;;;3.53;0.90;;;19.20;99.90;;;;;;5075968;28;20047;-65
2023/08/03 08:17:57;;;;;;;2.72;0.60;;;19.30;99.90;;;;;;5075055;28;20051;-65
2023/08/03 08:20:29;;;;;;;2.28;0.52;;;19.40;99.90;;;;;;5095955;28;20047;-65
2023/08/03 08:23:02;;;;;;;2.15;0.50;;;19.40;99.90;;;;;;5098113;28;20465;-65
2023/08/03 08:25:33;;;;;;;3.03;0.68;;;19.50;99.90;;;;;;5077852;28;20040;-65
2023/08/03 08:28:05;;;;;;;1.63;0.52;;;19.50;99.90;;;;;;5099373;28;20041;-65
2023/08/03 08:30:37;;;;;;;2.78;0.60;;;19.50;99.90;;;;;;5073796;28;20388;-64
2023/08/03 08:33:09;;;;;;;2.42;0.60;;;19.60;99.90;;;;;;5093511;28;20040;-65
2023/08/03 08:35:41;;;;;;;3.85;0.73;;;19.70;99.90;;;;;;5061338;28;20055;-65
2023/08/03 08:38:15;;;;;;;4.15;1.25;;;19.60;99.90;;;;;;5090876;28;20031;-65
2023/08/03 08:40:48;;;;;;;2.60;0.60;;;19.70;99.90;;;;;;5094956;28;20513;-65
2023/08/03 08:43:20;;;;;;;2.60;0.50;;;19.70;99.90;;;;;;5094407;28;20121;-65
2023/08/03 08:45:53;;;;;;;3.00;0.90;;;19.80;99.90;;;;;;5074420;28;20071;-65
2023/08/03 08:48:25;;;;;;;3.22;0.60;;;19.90;99.90;;;;;;5094633;28;20035;-65
2023/08/03 08:51:03;;;;;;;1.40;0.63;;;20.10;99.90;;;;;;5091663;28;20416;-65
2023/08/03 08:53:35;;;;;;;3.97;0.70;;;20.20;99.90;;;;;;5075274;28;20049;-66
2023/08/03 08:56:07;;;;;;;3.53;0.70;;;20.30;99.90;;;;;;5093739;28;20062;-65
2023/08/03 08:58:39;;;;;;;3.53;0.82;;;20.30;99.90;;;;;;5096847;28;20031;-65
2023/08/03 09:01:10;;;;;;;0.93;0.45;;;20.30;99.90;;;;;;5092757;28;20048;-65
2023/08/03 09:03:56;;;;;;;2.20;1.17;;;20.40;99.90;;;;;;5103890;28;20070;-65
2023/08/03 09:06:28;;;;;;;4.65;0.65;;;20.40;99.90;;;;;;5082555;28;20047;-65
2023/08/03 09:09:00;;;;;;;2.53;0.88;;;20.40;99.90;;;;;;5098662;28;20043;-65
2023/08/03 09:11:40;;;;;;;1.58;0.50;;;20.50;99.90;;;;;;5098455;28;20062;-64
2023/08/03 09:14:08;;;;;;;3.47;0.63;;;20.60;99.90;;;;;;5100564;28;20043;-65
2023/08/03 09:16:40;;;;;;;;;;;20.60;99.90;;;;;;5097037;28;20043;-65
2023/08/03 09:19:12;;;;;;;2.55;0.60;;;20.70;99.90;;;;;;5091545;28;19967;-66
2023/08/03 09:21:57;;;;;;;2.90;0.57;;;20.80;99.90;;;;;;5091321;28;20056;-65
2023/08/03 09:24:29;;;;;;;2.05;0.40;;;20.90;99.90;;;;;;5091614;28;20051;-65
2023/08/03 09:27:00;;;;;;;2.90;0.57;;;20.90;99.90;;;;;;5100794;28;20047;-65
2023/08/03 09:29:33;;;;;;;1.73;0.55;;;20.90;99.90;;;;;;5080869;28;20035;-65
2023/08/03 09:32:06;;;;;;;2.55;0.50;;;20.90;99.90;;;;;;5082411;28;20040;-65
2023/08/03 09:34:47;;;;;;;2.25;0.43;;;21.00;99.90;;;;;;5081314;28;20036;-65
2023/08/03 09:37:33;;;;;;;1.05;0.50;;;21.00;99.90;;;;;;5085207;28;20031;-65
2023/08/03 09:40:05;;;;;;;1.95;0.57;;;21.20;99.90;;;;;;5097531;28;20067;-65
2023/08/03 09:42:32;;;;;;;3.53;1.65;;;21.20;99.90;;;;;;5092345;28;20032;-65
2023/08/03 09:45:06;;;;;;;3.45;0.60;;;21.20;99.90;;;;;;5071029;28;20044;-65
2023/08/03 09:47:39;;;;;;;0.90;0.50;;;21.20;99.90;;;;;;5077710;28;20123;-65
2023/08/03 09:50:11;;;;;;;1.13;0.50;;;21.30;99.90;;;;;;5098852;28;20630;-65
2023/08/03 09:52:46;;;;;;;2.28;0.30;;;21.30;99.90;;;;;;5081547;28;20044;-65
2023/08/03 09:55:20;;;;;;;1.05;0.38;;;21.40;99.90;;;;;;5099791;28;20126;-65
2023/08/03 09:58:23;;;;;;;0.60;0.30;;;21.40;99.90;;;;;;5104957;28;20043;-65
2023/08/03 10:00:51;;;;;;;1.13;0.40;;;21.40;99.90;;;;;;5100695;28;20052;-65
2023/08/03 10:03:24;;;;;;;0.68;0.45;;;21.50;99.90;;;;;;5100387;28;20069;-65
2023/08/03 10:06:07;;;;;;;1.98;0.40;;;21.40;99.90;;;;;;5095579;28;20044;-65
2023/08/03 10:08:42;;;;;;;0.82;0.35;;;21.50;99.90;;;;;;5093625;28;20052;-65
2023/08/03 10:11:14;;;;;;;2.50;0.68;;;21.50;99.90;;;;;;5081784;28;20050;-65
2023/08/03 10:13:47;;;;;;;0.85;0.40;;;21.40;99.90;;;;;;5089561;28;20044;-65
2023/08/03 10:16:18;;;;;;;1.80;0.38;;;21.40;99.90;;;;;;5100939;28;20123;-65
2023/08/03 10:18:46;;;;;;;2.30;0.57;;;21.50;99.90;;;;;;5100325;28;20039;-66
2023/08/03 10:21:19;;;;;;;1.42;0.50;;;21.60;99.90;;;;;;5101811;28;20077;-65
2023/08/03 10:24:13;;;;;;;2.67;0.50;;;21.50;99.90;;;;;;5109720;22;20140;-65
2023/08/03 10:26:41;;;;;;;3.55;0.60;;;21.50;99.90;;;;;;5065006;28;20025;-65
2023/08/03 10:29:13;;;;;;;3.10;0.50;;;21.50;99.90;;;;;;5064049;28;20056;-65
2023/08/03 10:31:55;;;;;;;1.13;0.50;;;21.50;99.90;;;;;;5045464;28;20136;-65
2023/08/03 10:34:28;;;;;;;1.52;0.50;;;21.40;99.90;;;;;;5048110;28;20038;-65
2023/08/03 10:37:00;;;;;;;2.00;0.50;;;21.30;99.90;;;;;;5042356;28;20060;-65
2023/08/03 10:39:51;;;;;;;3.00;0.45;;;21.10;99.90;;;;;;5041611;28;20505;-65
2023/08/03 10:42:29;;;;;;;2.78;0.47;;;21.20;99.90;;;;;;5025840;28;20037;-65
2023/08/03 10:45:26;;;;;;;1.17;0.50;;;21.20;99.90;;;;;;5043524;28;20040;-65
2023/08/03 10:48:29;;;;;;;1.92;0.40;;;21.30;99.90;;;;;;5041255;28;20037;-65
2023/08/03 10:50:58;;;;;;;1.67;0.30;;;21.40;99.90;;;;;;5037994;28;20041;-65
2023/08/03 10:53:29;;;;;;;0.57;0.30;;;21.50;99.90;;;;;;5037866;28;20113;-65
2023/08/03 10:56:07;;;;;;;2.83;0.70;;;21.50;99.90;;;;;;5031966;28;20040;-65
2023/08/03 10:58:57;;;;;;;1.88;0.50;;;21.30;99.90;;;;;;5025694;28;20042;-65
2023/08/03 11:01:29;;;;;;;1.70;0.40;;;21.10;99.90;;;;;;5040690;28;20041;-66
2023/08/03 11:04:02;;;;;;;1.70;0.60;;;21.00;99.90;;;;;;5041443;28;20041;-65
2023/08/03 11:06:34;;;;;;;1.13;0.30;;;21.20;99.90;;;;;;5044214;28;20527;-65
2023/08/03 11:09:06;;;;;;;0.93;0.73;;;21.30;99.90;;;;;;5042882;28;20047;-65
2023/08/03 11:11:40;;;;;;;1.65;0.43;;;21.50;99.90;;;;;;5043698;28;20520;-65
2023/08/03 11:14:14;;;;;;;0.70;0.40;;;21.60;99.90;;;;;;5040205;28;20037;-65
2023/08/03 11:16:46;;;;;;;0.75;0.50;;;21.90;99.90;;;;;;5041910;28;20056;-65
2023/08/03 11:19:18;;;;;;;1.30;0.43;;;22.00;99.90;;;;;;5042986;28;20041;-63
2023/08/03 11:21:51;;;;;;;0.82;0.50;;;22.00;99.90;;;;;;5044773;28;20051;-62
2023/08/03 11:24:23;;;;;;;1.65;0.40;;;22.00;99.90;;;;;;5047403;28;20048;-63
2023/08/03 11:26:51;;;;;;;1.40;0.68;;;22.10;99.90;;;;;;5042684;28;20461;-63
2023/08/03 11:29:23;;;;;;;1.10;0.60;;;22.30;99.90;;;;;;5031778;28;20051;-63
2023/08/03 11:31:55;;;;;;;0.93;0.50;;;22.30;99.90;;;;;;5040011;28;20037;-63
2023/08/03 11:34:26;;;;;;;2.65;0.40;;;22.30;99.90;;;;;;5047507;28;20037;-63
2023/08/03 11:36:58;;;;;;;0.82;0.38;;;22.40;99.90;;;;;;5044332;28;20056;-63
2023/08/03 11:39:30;;;;;;;0.77;0.47;;;22.40;99.90;;;;;;5041481;28;20051;-63
2023/08/03 11:42:03;;;;;;;1.60;0.40;;;22.50;99.90;;;;;;5040446;28;20056;-63
2023/08/03 11:44:41;;;;;;;1.20;0.50;;;22.60;99.90;;;;;;5030639;28;20065;-62
2023/08/03 11:47:13;;;;;;;1.60;0.40;;;22.50;99.90;;;;;;5043059;28;20047;-62
2023/08/03 11:49:40;;;;;;;0.80;0.40;;;22.40;99.90;;;;;;5045012;28;20060;-63
2023/08/03 11:52:18;;;;;;;0.90;0.47;;;22.40;99.90;;;;;;5038078;28;20105;-63
2023/08/03 11:54:50;;;;;;;2.80;0.60;;;22.50;99.90;;;;;;5025841;28;20042;-62
2023/08/03 12:00:14;;;;;;;3.55;0.73;;;22.30;99.90;;;;;;5029107;28;20043;-62
2023/08/03 12:02:46;;;;;;;1.02;0.40;;;22.30;99.90;;;;;;5038972;28;20457;-62
2023/08/03 12:05:17;;;;;;;2.90;0.55;;;22.50;99.90;;;;;;5047158;28;20037;-62
2023/08/03 12:07:54;;;;;;;0.90;0.30;;;22.60;99.90;;;;;;5040678;28;20415;-62
2023/08/03 12:10:26;;;;;;;0.70;0.20;;;22.80;99.90;;;;;;5044926;28;20045;-64
2023/08/03 12:12:58;;;;;;;0.88;0.30;;;23.10;99.90;;;;;;5038575;28;20041;-65
2023/08/03 12:15:30;;;;;;;1.27;0.40;;;23.30;99.90;;;;;;5037780;28;20045;-65
2023/08/03 12:18:01;;;;;;;1.65;0.50;;;23.20;99.90;;;;;;5036639;28;20049;-66
2023/08/03 12:20:33;;;;;;;0.75;0.55;;;23.10;99.90;;;;;;5025301;28;20041;-65
2023/08/03 12:23:05;;;;;;;2.40;0.70;;;23.10;99.90;;;;;;5022812;28;20053;-65
2023/08/03 12:25:36;;;;;;;2.38;0.50;;;23.10;99.90;;;;;;5028617;28;20432;-64
2023/08/03 12:28:08;;;;;;;4.90;0.40;;;23.00;99.90;;;;;;5042149;28;20048;-64
2023/08/03 12:30:40;;;;;;;3.63;0.60;;;23.00;99.90;;;;;;5040702;28;20033;-64
2023/08/03 12:33:09;;;;;;;3.25;0.57;;;23.10;99.90;;;;;;5040409;28;20568;-65
2023/08/03 12:35:41;;;;;;;0.60;0.40;;;23.20;99.90;;;;;;5041813;28;20044;-64
2023/08/03 12:38:13;;;;;;;1.45;0.57;;;23.10;99.90;;;;;;5007354;28;20051;-64
2023/08/03 12:40:40;;;;;;;2.22;0.45;;;22.90;99.90;;;;;;5037396;28;20039;-64
2023/08/03 12:43:11;;;;;;;0.57;0.30;;;22.80;99.90;;;;;;5010612;28;20608;-65
2023/08/03 12:45:44;;;;;;;1.40;0.30;;;22.90;99.90;;;;;;5035826;28;20120;-65
2023/08/03 12:48:16;;;;;;;1.02;0.30;;;23.00;99.90;;;;;;5046348;28;20052;-65
2023/08/03 12:50:48;;;;;;;1.58;0.40;;;23.00;99.90;;;;;;5041304;28;20045;-64
2023/08/03 12:53:20;;;;;;;0.98;0.35;;;23.10;99.90;;;;;;5042330;28;20107;-64
2023/08/03 12:55:52;;;;;;;1.55;0.70;;;23.10;99.90;;;;;;5042859;28;20041;-64
2023/08/03 12:58:24;;;;;;;0.77;0.30;;;23.20;99.90;;;;;;5031763;28;20044;-64
2023/08/03 13:00:56;;;;;;;2.75;0.52;;;23.30;99.90;;;;;;5010542;28;20072;-65
2023/08/03 13:03:28;;;;;;;1.85;0.63;;;23.40;99.90;;;;;;5035529;28;20135;-65
2023/08/03 13:05:59;;;;;;;0.73;0.30;;;23.40;99.90;;;;;;5033616;28;20107;-65
2023/08/03 13:08:31;;;;;;;0.57;0.30;;;23.30;99.90;;;;;;5036054;28;20048;-65
2023/08/03 13:11:03;;;;;;;1.27;0.50;;;23.40;99.90;;;;;;5029590;28;20047;-65
2023/08/03 13:13:35;;;;;;;0.68;0.40;;;23.30;99.30;;;;;;5031588;28;20065;-64
2023/08/03 13:16:06;;;;;;;1.02;0.30;;;23.20;99.80;;;;;;5042720;28;20119;-64
2023/08/03 13:18:38;;;;;;;0.98;0.40;;;23.30;99.90;;;;;;5041088;28;20033;-64